JTC554 KOPF-KPHL
Flight info
| Callsign | JTC554 |
|---|---|
| Flight time | 2h 13m |
| Altitude | 45000 |
| Route | ALTNN2 DUCEN Q87 VIYAP SUSYQ Q87 JROSS Q135 RREGG Q117 SAWED Q97 ZJAAY JIIMS4 |
| Aircraft | C750/M-SBDE3FGHRWXY/S |
Departure
| Time | 2026-04-23 21:01 |
|---|---|
| Airport | Miami-Opa Locka Executive Airport (KOPF) |
Arrival
| Time | 2026-04-23 23:14 |
|---|---|
| Airport | Philadelphia International Airport (KPHL) |
| Time | Latitude | Longitude | Altitude | Speed | Heading |
|---|---|---|---|---|---|
| 2026-04-23 20:53 | 25.90680 | -80.27667 | 17 ft | 0 kts | 110° |
| 2026-04-23 20:57 | 25.90666 | -80.27673 | 18 ft | 5 kts | 263° |
| 2026-04-23 20:58 | 25.90665 | -80.27736 | 18 ft | 9 kts | 228° |
| 2026-04-23 20:58 | 25.90613 | -80.27822 | 19 ft | 15 kts | 263° |
| 2026-04-23 20:58 | 25.90664 | -80.27940 | 19 ft | 20 kts | 301° |
| 2026-04-23 20:58 | 25.90734 | -80.28067 | 18 ft | 19 kts | 301° |
| 2026-04-23 20:59 | 25.90798 | -80.28183 | 18 ft | 17 kts | 301° |
| 2026-04-23 20:59 | 25.90861 | -80.28295 | 16 ft | 17 kts | 301° |
| 2026-04-23 20:59 | 25.90923 | -80.28404 | 16 ft | 16 kts | 303° |
| 2026-04-23 20:59 | 25.90980 | -80.28499 | 17 ft | 14 kts | 303° |
| 2026-04-23 21:00 | 25.90999 | -80.28608 | 16 ft | 17 kts | 245° |
| 2026-04-23 21:00 | 25.90976 | -80.28636 | 15 ft | 11 kts | 214° |
| 2026-04-23 21:00 | 25.90899 | -80.28580 | 15 ft | 37 kts | 124° |
| 2026-04-23 21:00 | 25.90580 | -80.28013 | 23 ft | 127 kts | 123° |
| 2026-04-23 21:01 | 25.90060 | -80.27109 | 429 ft | 148 kts | 120° |
| 2026-04-23 21:01 | 25.89856 | -80.25982 | 1039 ft | 152 kts | 94° |
| 2026-04-23 21:01 | 25.90115 | -80.24815 | 1676 ft | 163 kts | 66° |
| 2026-04-23 21:01 | 25.90851 | -80.23849 | 2393 ft | 169 kts | 43° |
| 2026-04-23 21:02 | 25.91953 | -80.23320 | 3113 ft | 179 kts | 17° |
| 2026-04-23 21:02 | 25.93225 | -80.23274 | 3795 ft | 184 kts | 2° |
| 2026-04-23 21:02 | 25.94514 | -80.23270 | 4421 ft | 194 kts | 3° |
| 2026-04-23 21:02 | 25.95963 | -80.23244 | 4855 ft | 221 kts | 3° |
| 2026-04-23 21:03 | 25.97582 | -80.23223 | 5334 ft | 245 kts | 2° |
| 2026-04-23 21:03 | 25.99371 | -80.23207 | 5778 ft | 269 kts | 1° |
| 2026-04-23 21:03 | 26.01277 | -80.23189 | 6581 ft | 274 kts | 360° |
| 2026-04-23 21:03 | 26.03189 | -80.23167 | 7555 ft | 275 kts | 359° |
| 2026-04-23 21:04 | 26.05118 | -80.23145 | 8533 ft | 278 kts | 359° |
| 2026-04-23 21:04 | 26.07063 | -80.23122 | 9528 ft | 280 kts | 358° |
| 2026-04-23 21:04 | 26.09031 | -80.23101 | 10282 ft | 289 kts | 359° |
| 2026-04-23 21:04 | 26.11129 | -80.23080 | 10447 ft | 315 kts | 358° |
| 2026-04-23 21:05 | 26.13394 | -80.23058 | 10480 ft | 343 kts | 359° |
| 2026-04-23 21:05 | 26.15819 | -80.23025 | 11005 ft | 349 kts | 359° |
| 2026-04-23 21:05 | 26.18253 | -80.22993 | 11707 ft | 352 kts | 358° |
| 2026-04-23 21:05 | 26.20725 | -80.22967 | 12313 ft | 357 kts | 358° |
| 2026-04-23 21:06 | 26.23224 | -80.22941 | 12955 ft | 361 kts | 358° |
| 2026-04-23 21:06 | 26.25749 | -80.22912 | 13621 ft | 364 kts | 358° |
| 2026-04-23 21:06 | 26.28291 | -80.22882 | 14216 ft | 368 kts | 358° |
| 2026-04-23 21:06 | 26.30865 | -80.22853 | 14776 ft | 371 kts | 358° |
| 2026-04-23 21:07 | 26.33459 | -80.22824 | 15333 ft | 375 kts | 358° |
| 2026-04-23 21:07 | 26.36081 | -80.22794 | 15899 ft | 379 kts | 358° |
| 2026-04-23 21:07 | 26.38723 | -80.22859 | 16420 ft | 381 kts | 352° |
| 2026-04-23 21:07 | 26.41370 | -80.23149 | 17017 ft | 384 kts | 351° |
| 2026-04-23 21:08 | 26.44039 | -80.23445 | 17632 ft | 387 kts | 352° |
| 2026-04-23 21:08 | 26.46739 | -80.23712 | 18257 ft | 392 kts | 352° |
| 2026-04-23 21:08 | 26.49467 | -80.23980 | 18810 ft | 395 kts | 352° |
| 2026-04-23 21:08 | 26.52216 | -80.24267 | 19417 ft | 398 kts | 351° |
| 2026-04-23 21:09 | 26.54949 | -80.24555 | 20023 ft | 400 kts | 352° |
| 2026-04-23 21:09 | 26.57720 | -80.24924 | 20581 ft | 403 kts | 348° |
| 2026-04-23 21:09 | 26.60498 | -80.25399 | 21194 ft | 405 kts | 348° |
| 2026-04-23 21:09 | 26.63298 | -80.25868 | 21790 ft | 408 kts | 348° |
| 2026-04-23 21:10 | 26.66125 | -80.26331 | 22389 ft | 411 kts | 348° |
| 2026-04-23 21:10 | 26.68965 | -80.26802 | 22986 ft | 414 kts | 348° |
| 2026-04-23 21:10 | 26.71768 | -80.27550 | 23522 ft | 414 kts | 339° |
| 2026-04-23 21:10 | 26.74469 | -80.28680 | 24043 ft | 416 kts | 336° |
| 2026-04-23 21:11 | 26.77191 | -80.29824 | 24520 ft | 419 kts | 336° |
| 2026-04-23 21:11 | 26.79938 | -80.30956 | 24992 ft | 423 kts | 336° |
| 2026-04-23 21:11 | 26.82704 | -80.32108 | 25454 ft | 426 kts | 336° |
| 2026-04-23 21:11 | 26.85489 | -80.33283 | 25935 ft | 429 kts | 335° |
| 2026-04-23 21:12 | 26.88291 | -80.34459 | 26420 ft | 431 kts | 335° |
| 2026-04-23 21:12 | 26.91115 | -80.35637 | 26874 ft | 435 kts | 335° |
| 2026-04-23 21:12 | 26.93960 | -80.36828 | 27333 ft | 438 kts | 335° |
| 2026-04-23 21:12 | 26.96827 | -80.38013 | 27785 ft | 441 kts | 336° |
| 2026-04-23 21:13 | 26.99696 | -80.39149 | 28228 ft | 445 kts | 336° |
| 2026-04-23 21:13 | 27.02628 | -80.40310 | 28668 ft | 448 kts | 336° |
| 2026-04-23 21:13 | 27.05570 | -80.41507 | 29103 ft | 451 kts | 335° |
| 2026-04-23 21:13 | 27.08530 | -80.42716 | 29526 ft | 454 kts | 335° |
| 2026-04-23 21:14 | 27.11484 | -80.43991 | 29920 ft | 456 kts | 334° |
| 2026-04-23 21:14 | 27.14444 | -80.45296 | 30319 ft | 459 kts | 334° |
| 2026-04-23 21:14 | 27.17428 | -80.46612 | 30673 ft | 462 kts | 333° |
| 2026-04-23 21:14 | 27.20424 | -80.47934 | 31048 ft | 464 kts | 333° |
| 2026-04-23 21:15 | 27.23418 | -80.49255 | 31640 ft | 460 kts | 333° |
| 2026-04-23 21:15 | 27.26385 | -80.50566 | 32228 ft | 457 kts | 333° |
| 2026-04-23 21:15 | 27.29342 | -80.51875 | 32794 ft | 455 kts | 333° |
| 2026-04-23 21:15 | 27.32282 | -80.53177 | 33366 ft | 453 kts | 332° |
| 2026-04-23 21:16 | 27.35206 | -80.54471 | 33907 ft | 452 kts | 332° |
| 2026-04-23 21:16 | 27.38157 | -80.55714 | 34315 ft | 454 kts | 334° |
| 2026-04-23 21:16 | 27.41141 | -80.56889 | 34790 ft | 453 kts | 335° |
| 2026-04-23 21:16 | 27.44112 | -80.58060 | 35276 ft | 452 kts | 335° |
| 2026-04-23 21:17 | 27.47067 | -80.59239 | 35758 ft | 450 kts | 335° |
| 2026-04-23 21:17 | 27.50021 | -80.60420 | 36255 ft | 449 kts | 335° |
| 2026-04-23 21:17 | 27.52960 | -80.61587 | 36779 ft | 448 kts | 335° |
| 2026-04-23 21:17 | 27.55900 | -80.62754 | 37298 ft | 447 kts | 335° |
| 2026-04-23 21:18 | 27.58823 | -80.63919 | 37817 ft | 445 kts | 335° |
| 2026-04-23 21:18 | 27.61739 | -80.65083 | 38325 ft | 444 kts | 335° |
| 2026-04-23 21:18 | 27.64649 | -80.66244 | 38838 ft | 443 kts | 336° |
| 2026-04-23 21:18 | 27.67554 | -80.67402 | 39263 ft | 442 kts | 335° |
| 2026-04-23 21:19 | 27.70453 | -80.68559 | 39668 ft | 442 kts | 335° |
| 2026-04-23 21:19 | 27.73348 | -80.69717 | 40082 ft | 441 kts | 335° |
| 2026-04-23 21:19 | 27.76236 | -80.70871 | 40533 ft | 440 kts | 335° |
| 2026-04-23 21:19 | 27.79090 | -80.72011 | 40970 ft | 439 kts | 335° |
| 2026-04-23 21:20 | 27.81966 | -80.73162 | 41366 ft | 438 kts | 335° |
| 2026-04-23 21:20 | 27.84845 | -80.74315 | 41760 ft | 438 kts | 335° |
| 2026-04-23 21:20 | 27.87717 | -80.75466 | 42154 ft | 438 kts | 335° |
| 2026-04-23 21:20 | 27.90587 | -80.76616 | 42539 ft | 437 kts | 335° |
| 2026-04-23 21:21 | 27.93454 | -80.77766 | 42930 ft | 437 kts | 335° |
| 2026-04-23 21:21 | 27.96321 | -80.78916 | 43309 ft | 437 kts | 335° |
| 2026-04-23 21:21 | 27.99186 | -80.80066 | 43687 ft | 436 kts | 335° |
| 2026-04-23 21:21 | 28.02042 | -80.81214 | 44048 ft | 436 kts | 335° |
| 2026-04-23 21:22 | 28.04906 | -80.82365 | 44410 ft | 436 kts | 335° |
| 2026-04-23 21:22 | 28.07760 | -80.83513 | 44765 ft | 436 kts | 335° |
| 2026-04-23 21:22 | 28.10626 | -80.84667 | 44975 ft | 437 kts | 336° |
| 2026-04-23 21:22 | 28.13501 | -80.85824 | 45093 ft | 441 kts | 336° |
| 2026-04-23 21:23 | 28.19369 | -80.88191 | 45092 ft | 454 kts | 336° |
| 2026-04-23 21:23 | 28.25396 | -80.90621 | 45107 ft | 466 kts | 336° |
| 2026-04-23 21:24 | 28.31569 | -80.93114 | 45108 ft | 474 kts | 336° |
| 2026-04-23 21:24 | 28.37789 | -80.95627 | 45109 ft | 476 kts | 336° |
| 2026-04-23 21:25 | 28.44027 | -80.98154 | 45109 ft | 476 kts | 336° |
| 2026-04-23 21:25 | 28.50267 | -81.00683 | 45112 ft | 476 kts | 336° |
| 2026-04-23 21:26 | 28.56502 | -81.03215 | 45111 ft | 476 kts | 336° |
| 2026-04-23 21:26 | 28.61685 | -81.05321 | 45092 ft | 476 kts | 336° |
| 2026-04-23 21:27 | 28.67923 | -81.07860 | 45081 ft | 478 kts | 336° |
| 2026-04-23 21:27 | 28.74192 | -81.10413 | 45077 ft | 478 kts | 336° |
| 2026-04-23 21:28 | 28.80456 | -81.12969 | 45072 ft | 478 kts | 336° |
| 2026-04-23 21:28 | 28.86717 | -81.15526 | 45091 ft | 478 kts | 336° |
| 2026-04-23 21:29 | 28.92987 | -81.18091 | 45092 ft | 478 kts | 336° |
| 2026-04-23 21:29 | 28.99218 | -81.20643 | 45098 ft | 480 kts | 336° |
| 2026-04-23 21:30 | 29.05504 | -81.23219 | 45094 ft | 480 kts | 336° |
| 2026-04-23 21:30 | 29.11794 | -81.25803 | 45091 ft | 480 kts | 336° |
| 2026-04-23 21:31 | 29.18073 | -81.28383 | 45093 ft | 480 kts | 336° |
| 2026-04-23 21:31 | 29.24355 | -81.30970 | 45094 ft | 480 kts | 336° |
| 2026-04-23 21:32 | 29.30867 | -81.32540 | 45094 ft | 486 kts | 353° |
| 2026-04-23 21:32 | 29.37616 | -81.32874 | 45115 ft | 488 kts | 353° |
| 2026-04-23 21:33 | 29.44389 | -81.33312 | 45111 ft | 488 kts | 353° |
| 2026-04-23 21:33 | 29.51173 | -81.33689 | 45105 ft | 488 kts | 353° |
| 2026-04-23 21:34 | 29.57943 | -81.34101 | 45113 ft | 484 kts | 353° |
| 2026-04-23 21:34 | 29.64691 | -81.34495 | 45111 ft | 487 kts | 354° |
| 2026-04-23 21:35 | 29.71450 | -81.34896 | 45115 ft | 487 kts | 354° |
| 2026-04-23 21:35 | 29.78229 | -81.35297 | 45116 ft | 487 kts | 354° |
| 2026-04-23 21:36 | 29.88346 | -81.35899 | 45113 ft | 482 kts | 354° |
| 2026-04-23 21:37 | 29.95063 | -81.36297 | 45111 ft | 483 kts | 354° |
| 2026-04-23 21:37 | 30.01782 | -81.36697 | 45112 ft | 484 kts | 354° |
| 2026-04-23 21:38 | 30.08468 | -81.37096 | 45114 ft | 484 kts | 354° |
| 2026-04-23 21:38 | 30.15188 | -81.37497 | 45112 ft | 482 kts | 354° |
| 2026-04-23 21:39 | 30.21899 | -81.37898 | 45109 ft | 482 kts | 354° |
| 2026-04-23 21:39 | 30.28604 | -81.38299 | 45097 ft | 482 kts | 354° |
| 2026-04-23 21:40 | 30.35313 | -81.38702 | 45095 ft | 482 kts | 354° |
| 2026-04-23 21:40 | 30.41981 | -81.39102 | 45097 ft | 482 kts | 354° |
| 2026-04-23 21:41 | 30.48688 | -81.39499 | 45095 ft | 482 kts | 354° |
| 2026-04-23 21:41 | 30.55404 | -81.39832 | 45106 ft | 482 kts | 354° |
| 2026-04-23 21:42 | 30.62115 | -81.40199 | 45105 ft | 482 kts | 354° |
| 2026-04-23 21:42 | 30.68793 | -81.40546 | 45107 ft | 484 kts | 354° |
| 2026-04-23 21:43 | 30.75533 | -81.40908 | 45106 ft | 484 kts | 354° |
| 2026-04-23 21:43 | 30.82268 | -81.41263 | 45104 ft | 485 kts | 354° |
| 2026-04-23 21:44 | 30.89019 | -81.41624 | 45104 ft | 485 kts | 354° |
| 2026-04-23 21:44 | 30.95760 | -81.41982 | 45094 ft | 484 kts | 354° |
| 2026-04-23 21:45 | 31.02499 | -81.42342 | 45087 ft | 485 kts | 354° |
| 2026-04-23 21:45 | 31.09237 | -81.42702 | 45089 ft | 485 kts | 354° |
| 2026-04-23 21:46 | 31.15937 | -81.43061 | 45088 ft | 485 kts | 354° |
| 2026-04-23 21:46 | 31.22685 | -81.43249 | 45078 ft | 488 kts | 1° |
| 2026-04-23 21:47 | 31.29286 | -81.41462 | 45088 ft | 491 kts | 19° |
| 2026-04-23 21:47 | 31.35476 | -81.37959 | 45102 ft | 494 kts | 23° |
| 2026-04-23 21:48 | 31.41725 | -81.34644 | 45099 ft | 493 kts | 21° |
| 2026-04-23 21:48 | 31.47954 | -81.31232 | 45092 ft | 494 kts | 22° |
| 2026-04-23 21:49 | 31.54129 | -81.27878 | 45085 ft | 489 kts | 21° |
| 2026-04-23 21:49 | 31.60308 | -81.24518 | 45076 ft | 490 kts | 22° |
| 2026-04-23 21:50 | 31.66489 | -81.21137 | 45069 ft | 490 kts | 21° |
| 2026-04-23 21:50 | 31.72672 | -81.17767 | 45062 ft | 490 kts | 22° |
| 2026-04-23 21:51 | 31.78846 | -81.14382 | 45047 ft | 487 kts | 21° |
| 2026-04-23 21:51 | 31.84997 | -81.11017 | 45048 ft | 487 kts | 21° |
| 2026-04-23 21:52 | 31.91141 | -81.07639 | 45040 ft | 487 kts | 21° |
| 2026-04-23 21:52 | 31.97314 | -81.04252 | 45040 ft | 489 kts | 21° |
| 2026-04-23 21:53 | 32.03472 | -81.00842 | 45061 ft | 489 kts | 22° |
| 2026-04-23 21:53 | 32.09564 | -80.97418 | 45045 ft | 488 kts | 22° |
| 2026-04-23 21:54 | 32.15702 | -80.93991 | 45076 ft | 488 kts | 22° |
| 2026-04-23 21:54 | 32.21831 | -80.90547 | 45090 ft | 488 kts | 21° |
| 2026-04-23 21:55 | 32.27977 | -80.87099 | 45091 ft | 488 kts | 21° |
| 2026-04-23 21:55 | 32.34109 | -80.83647 | 45086 ft | 488 kts | 21° |
| 2026-04-23 21:56 | 32.40240 | -80.80194 | 45072 ft | 488 kts | 21° |
| 2026-04-23 21:56 | 32.46367 | -80.76736 | 45074 ft | 488 kts | 21° |
| 2026-04-23 21:57 | 32.52492 | -80.73275 | 45076 ft | 488 kts | 21° |
| 2026-04-23 21:57 | 32.58618 | -80.69808 | 45077 ft | 488 kts | 21° |
| 2026-04-23 21:58 | 32.64741 | -80.66337 | 45069 ft | 488 kts | 21° |
| 2026-04-23 21:58 | 32.70705 | -80.62464 | 45044 ft | 494 kts | 32° |
| 2026-04-23 21:59 | 32.75624 | -80.56761 | 45055 ft | 501 kts | 46° |
| 2026-04-23 21:59 | 32.80140 | -80.50421 | 45065 ft | 502 kts | 44° |
| 2026-04-23 22:00 | 32.87091 | -80.41092 | 45053 ft | 503 kts | 46° |
| 2026-04-23 22:00 | 32.91695 | -80.34826 | 45048 ft | 502 kts | 44° |
| 2026-04-23 22:01 | 32.96303 | -80.28570 | 45054 ft | 503 kts | 45° |
| 2026-04-23 22:01 | 33.00902 | -80.22283 | 45056 ft | 503 kts | 45° |
| 2026-04-23 22:02 | 33.05504 | -80.16011 | 45040 ft | 503 kts | 45° |
| 2026-04-23 22:02 | 33.10102 | -80.09710 | 45041 ft | 503 kts | 45° |
| 2026-04-23 22:03 | 33.14698 | -80.03418 | 45041 ft | 503 kts | 45° |
| 2026-04-23 22:03 | 33.19298 | -79.97097 | 45039 ft | 503 kts | 45° |
| 2026-04-23 22:04 | 33.23856 | -79.90831 | 45037 ft | 503 kts | 45° |
| 2026-04-23 22:04 | 33.28445 | -79.84505 | 45040 ft | 503 kts | 45° |
| 2026-04-23 22:05 | 33.33037 | -79.78169 | 45038 ft | 504 kts | 45° |
| 2026-04-23 22:05 | 33.37621 | -79.71831 | 45037 ft | 504 kts | 45° |
| 2026-04-23 22:06 | 33.42204 | -79.65484 | 45043 ft | 504 kts | 45° |
| 2026-04-23 22:06 | 33.46782 | -79.59131 | 45042 ft | 504 kts | 45° |
| 2026-04-23 22:07 | 33.51363 | -79.52765 | 45065 ft | 504 kts | 45° |
| 2026-04-23 22:07 | 33.54393 | -79.48547 | 45044 ft | 504 kts | 45° |
| 2026-04-23 22:09 | 33.59207 | -79.41836 | 45035 ft | 504 kts | 45° |
| 2026-04-23 22:10 | 33.63784 | -79.35443 | 45022 ft | 505 kts | 45° |
| 2026-04-23 22:10 | 33.68354 | -79.29049 | 45024 ft | 505 kts | 45° |
| 2026-04-23 22:11 | 33.72937 | -79.22638 | 45034 ft | 505 kts | 45° |
| 2026-04-23 22:11 | 33.77528 | -79.16203 | 45025 ft | 507 kts | 46° |
| 2026-04-23 22:12 | 33.82113 | -79.09759 | 45029 ft | 507 kts | 45° |
| 2026-04-23 22:12 | 33.86670 | -79.03350 | 45020 ft | 508 kts | 45° |
| 2026-04-23 22:13 | 33.91254 | -78.96886 | 45026 ft | 508 kts | 45° |
| 2026-04-23 22:13 | 33.95840 | -78.90411 | 45019 ft | 508 kts | 45° |
| 2026-04-23 22:14 | 33.99678 | -78.84981 | 45030 ft | 508 kts | 46° |
| 2026-04-23 22:14 | 34.04224 | -78.78541 | 45028 ft | 508 kts | 46° |
| 2026-04-23 22:15 | 34.08796 | -78.72051 | 45028 ft | 508 kts | 46° |
| 2026-04-23 22:15 | 34.13373 | -78.65544 | 45022 ft | 510 kts | 46° |
| 2026-04-23 22:16 | 34.17951 | -78.59019 | 45023 ft | 509 kts | 46° |
| 2026-04-23 22:16 | 34.22525 | -78.52492 | 45023 ft | 508 kts | 46° |
| 2026-04-23 22:17 | 34.27366 | -78.46316 | 45016 ft | 503 kts | 37° |
| 2026-04-23 22:17 | 34.32666 | -78.40795 | 45017 ft | 503 kts | 37° |
| 2026-04-23 22:18 | 34.37888 | -78.35137 | 45020 ft | 504 kts | 38° |
| 2026-04-23 22:18 | 34.43158 | -78.29538 | 45018 ft | 503 kts | 37° |
| 2026-04-23 22:19 | 34.48384 | -78.23913 | 44997 ft | 502 kts | 38° |
| 2026-04-23 22:19 | 34.53586 | -78.18333 | 44993 ft | 502 kts | 37° |
| 2026-04-23 22:20 | 34.58815 | -78.12704 | 44989 ft | 502 kts | 38° |
| 2026-04-23 22:20 | 34.64040 | -78.07072 | 44984 ft | 502 kts | 37° |
| 2026-04-23 22:21 | 34.69260 | -78.01437 | 44987 ft | 500 kts | 38° |
| 2026-04-23 22:21 | 34.74463 | -77.95807 | 44985 ft | 501 kts | 38° |
| 2026-04-23 22:22 | 34.79670 | -77.90166 | 44982 ft | 501 kts | 37° |
| 2026-04-23 22:22 | 34.84873 | -77.84517 | 44985 ft | 501 kts | 37° |
| 2026-04-23 22:23 | 34.90118 | -77.79017 | 44994 ft | 499 kts | 36° |
| 2026-04-23 22:23 | 34.95398 | -77.73526 | 44996 ft | 499 kts | 36° |
| 2026-04-23 22:24 | 35.00686 | -77.68056 | 44996 ft | 498 kts | 36° |
| 2026-04-23 22:24 | 35.05970 | -77.62562 | 45000 ft | 499 kts | 36° |
| 2026-04-23 22:25 | 35.11255 | -77.57068 | 45004 ft | 499 kts | 36° |
| 2026-04-23 22:25 | 35.16800 | -77.52110 | 44989 ft | 491 kts | 26° |
| 2026-04-23 22:26 | 35.22672 | -77.47805 | 45000 ft | 492 kts | 27° |
| 2026-04-23 22:26 | 35.28454 | -77.43433 | 44995 ft | 492 kts | 27° |
| 2026-04-23 22:27 | 35.34300 | -77.39083 | 44994 ft | 492 kts | 27° |
| 2026-04-23 22:27 | 35.40131 | -77.34693 | 44990 ft | 492 kts | 27° |
| 2026-04-23 22:28 | 35.45974 | -77.30310 | 44974 ft | 492 kts | 27° |
| 2026-04-23 22:28 | 35.51805 | -77.25915 | 44973 ft | 492 kts | 27° |
| 2026-04-23 22:29 | 35.57640 | -77.21518 | 44984 ft | 494 kts | 27° |
| 2026-04-23 22:29 | 35.63503 | -77.17090 | 44977 ft | 496 kts | 27° |
| 2026-04-23 22:30 | 35.69382 | -77.12637 | 44978 ft | 495 kts | 27° |
| 2026-04-23 22:30 | 35.75254 | -77.08205 | 44978 ft | 495 kts | 27° |
| 2026-04-23 22:31 | 35.81122 | -77.03757 | 44972 ft | 495 kts | 27° |
| 2026-04-23 22:31 | 35.86945 | -76.99341 | 44963 ft | 494 kts | 27° |
| 2026-04-23 22:32 | 35.92829 | -76.94967 | 44952 ft | 492 kts | 24° |
| 2026-04-23 22:32 | 35.98872 | -76.90988 | 44950 ft | 492 kts | 23° |
| 2026-04-23 22:33 | 36.04893 | -76.86961 | 44960 ft | 490 kts | 24° |
| 2026-04-23 22:33 | 36.10884 | -76.82972 | 44961 ft | 489 kts | 24° |
| 2026-04-23 22:34 | 36.16878 | -76.78964 | 44961 ft | 490 kts | 24° |
| 2026-04-23 22:34 | 36.22873 | -76.74951 | 44959 ft | 490 kts | 24° |
| 2026-04-23 22:35 | 36.28849 | -76.70945 | 44958 ft | 487 kts | 24° |
| 2026-04-23 22:35 | 36.34813 | -76.66937 | 44953 ft | 488 kts | 24° |
| 2026-04-23 22:36 | 36.40779 | -76.62923 | 44947 ft | 488 kts | 24° |
| 2026-04-23 22:36 | 36.46738 | -76.58905 | 44945 ft | 488 kts | 24° |
| 2026-04-23 22:37 | 36.52676 | -76.54898 | 44945 ft | 485 kts | 24° |
| 2026-04-23 22:37 | 36.58598 | -76.50890 | 44962 ft | 485 kts | 24° |
| 2026-04-23 22:38 | 36.64520 | -76.46877 | 44968 ft | 485 kts | 24° |
| 2026-04-23 22:38 | 36.70414 | -76.42875 | 44979 ft | 484 kts | 24° |
| 2026-04-23 22:39 | 36.76307 | -76.38869 | 44971 ft | 483 kts | 24° |
| 2026-04-23 22:39 | 36.82209 | -76.34846 | 44971 ft | 483 kts | 24° |
| 2026-04-23 22:40 | 36.88114 | -76.30818 | 44986 ft | 483 kts | 24° |
| 2026-04-23 22:41 | 36.96950 | -76.24773 | 44983 ft | 482 kts | 24° |
| 2026-04-23 22:41 | 37.02834 | -76.20739 | 44981 ft | 482 kts | 24° |
| 2026-04-23 22:42 | 37.08713 | -76.16702 | 44958 ft | 482 kts | 24° |
| 2026-04-23 22:42 | 37.14552 | -76.12686 | 44966 ft | 483 kts | 24° |
| 2026-04-23 22:43 | 37.20442 | -76.08625 | 44961 ft | 482 kts | 24° |
| 2026-04-23 22:43 | 37.26330 | -76.04560 | 44964 ft | 483 kts | 24° |
| 2026-04-23 22:44 | 37.32218 | -76.00487 | 44965 ft | 483 kts | 24° |
| 2026-04-23 22:44 | 37.38098 | -75.96413 | 44957 ft | 482 kts | 24° |
| 2026-04-23 22:45 | 37.43971 | -75.92336 | 44965 ft | 482 kts | 24° |
| 2026-04-23 22:45 | 37.49805 | -75.88279 | 44966 ft | 482 kts | 24° |
| 2026-04-23 22:46 | 37.55645 | -75.84092 | 44967 ft | 484 kts | 25° |
| 2026-04-23 22:46 | 37.61439 | -75.79757 | 44967 ft | 484 kts | 25° |
| 2026-04-23 22:47 | 37.67239 | -75.75411 | 44968 ft | 485 kts | 25° |
| 2026-04-23 22:47 | 37.73038 | -75.71050 | 44967 ft | 485 kts | 25° |
| 2026-04-23 22:48 | 37.78836 | -75.66689 | 44958 ft | 485 kts | 26° |
| 2026-04-23 22:48 | 37.84629 | -75.62278 | 44961 ft | 487 kts | 28° |
| 2026-04-23 22:49 | 37.90225 | -75.57402 | 44974 ft | 488 kts | 30° |
| 2026-04-23 22:49 | 37.95786 | -75.52570 | 44982 ft | 489 kts | 29° |
| 2026-04-23 22:50 | 38.01394 | -75.47677 | 44972 ft | 489 kts | 29° |
| 2026-04-23 22:50 | 38.07146 | -75.43169 | 44963 ft | 480 kts | 19° |
| 2026-04-23 22:51 | 38.13241 | -75.39650 | 44969 ft | 481 kts | 19° |
| 2026-04-23 22:51 | 38.19312 | -75.36059 | 44976 ft | 481 kts | 19° |
| 2026-04-23 22:52 | 38.25396 | -75.32511 | 44980 ft | 480 kts | 19° |
| 2026-04-23 22:52 | 38.31424 | -75.28953 | 44980 ft | 480 kts | 19° |
| 2026-04-23 22:53 | 38.37491 | -75.25389 | 44980 ft | 480 kts | 19° |
| 2026-04-23 22:53 | 38.43550 | -75.21808 | 44983 ft | 478 kts | 19° |
| 2026-04-23 22:54 | 38.49592 | -75.18240 | 44979 ft | 478 kts | 19° |
| 2026-04-23 22:54 | 38.55635 | -75.14658 | 44977 ft | 478 kts | 19° |
| 2026-04-23 22:55 | 38.61627 | -75.10903 | 44972 ft | 480 kts | 21° |
| 2026-04-23 22:55 | 38.67597 | -75.07094 | 44963 ft | 479 kts | 21° |
| 2026-04-23 22:56 | 38.73566 | -75.03261 | 44968 ft | 480 kts | 21° |
| 2026-04-23 22:56 | 38.76541 | -75.01348 | 44967 ft | 469 kts | 21° |
| 2026-04-23 22:56 | 38.79299 | -74.99557 | 44282 ft | 437 kts | 20° |
| 2026-04-23 22:56 | 38.82012 | -74.97828 | 43405 ft | 433 kts | 20° |
| 2026-04-23 22:57 | 38.84666 | -74.96137 | 42511 ft | 430 kts | 20° |
| 2026-04-23 22:57 | 38.87332 | -74.94413 | 41544 ft | 428 kts | 20° |
| 2026-04-23 22:57 | 38.90017 | -74.92671 | 40560 ft | 426 kts | 19° |
| 2026-04-23 22:57 | 38.92623 | -74.90991 | 39607 ft | 424 kts | 19° |
| 2026-04-23 22:58 | 38.95258 | -74.89294 | 38632 ft | 422 kts | 19° |
| 2026-04-23 22:58 | 38.97882 | -74.87598 | 37342 ft | 422 kts | 19° |
| 2026-04-23 22:58 | 39.00520 | -74.85891 | 35841 ft | 427 kts | 19° |
| 2026-04-23 22:58 | 39.03204 | -74.84193 | 34273 ft | 431 kts | 17° |
| 2026-04-23 22:59 | 39.06030 | -74.82914 | 32554 ft | 429 kts | 9° |
| 2026-04-23 22:59 | 39.08931 | -74.82164 | 30974 ft | 422 kts | 2° |
| 2026-04-23 22:59 | 39.11851 | -74.81946 | 29323 ft | 417 kts | 355° |
| 2026-04-23 22:59 | 39.14699 | -74.82231 | 27906 ft | 405 kts | 348° |
| 2026-04-23 23:00 | 39.17416 | -74.82979 | 26490 ft | 394 kts | 341° |
| 2026-04-23 23:00 | 39.19994 | -74.83966 | 25163 ft | 388 kts | 340° |
| 2026-04-23 23:00 | 39.22565 | -74.84928 | 23878 ft | 382 kts | 341° |
| 2026-04-23 23:00 | 39.25105 | -74.85870 | 22492 ft | 376 kts | 340° |
| 2026-04-23 23:01 | 39.27594 | -74.86810 | 21204 ft | 368 kts | 340° |
| 2026-04-23 23:01 | 39.30029 | -74.87734 | 19931 ft | 361 kts | 340° |
| 2026-04-23 23:01 | 39.32427 | -74.88640 | 18688 ft | 356 kts | 340° |
| 2026-04-23 23:01 | 39.34786 | -74.89529 | 17396 ft | 350 kts | 340° |
| 2026-04-23 23:02 | 39.36322 | -74.90109 | 16564 ft | 346 kts | 340° |
| 2026-04-23 23:02 | 39.38605 | -74.90973 | 15360 ft | 339 kts | 340° |
| 2026-04-23 23:02 | 39.40847 | -74.91820 | 14210 ft | 332 kts | 340° |
| 2026-04-23 23:02 | 39.43048 | -74.92652 | 12985 ft | 327 kts | 340° |
| 2026-04-23 23:03 | 39.45210 | -74.93471 | 11798 ft | 321 kts | 340° |
| 2026-04-23 23:03 | 39.47338 | -74.94277 | 10702 ft | 315 kts | 341° |
| 2026-04-23 23:03 | 39.49394 | -74.95054 | 10058 ft | 298 kts | 341° |
| 2026-04-23 23:03 | 39.51279 | -74.95763 | 9987 ft | 266 kts | 341° |
| 2026-04-23 23:04 | 39.52973 | -74.96406 | 9980 ft | 248 kts | 340° |
| 2026-04-23 23:04 | 39.54512 | -74.97359 | 9765 ft | 242 kts | 326° |
| 2026-04-23 23:04 | 39.55887 | -74.98656 | 8704 ft | 254 kts | 322° |
| 2026-04-23 23:04 | 39.57313 | -75.00025 | 7958 ft | 255 kts | 323° |
| 2026-04-23 23:05 | 39.58706 | -75.01313 | 7893 ft | 241 kts | 323° |
| 2026-04-23 23:05 | 39.60086 | -75.02589 | 7901 ft | 244 kts | 323° |
| 2026-04-23 23:05 | 39.61466 | -75.03876 | 7901 ft | 245 kts | 323° |
| 2026-04-23 23:05 | 39.62850 | -75.05167 | 7902 ft | 245 kts | 323° |
| 2026-04-23 23:06 | 39.64238 | -75.06463 | 7891 ft | 247 kts | 323° |
| 2026-04-23 23:06 | 39.65641 | -75.07771 | 7885 ft | 248 kts | 323° |
| 2026-04-23 23:06 | 39.67167 | -75.08810 | 7391 ft | 252 kts | 341° |
| 2026-04-23 23:06 | 39.68985 | -75.08937 | 6438 ft | 269 kts | 3° |
| 2026-04-23 23:07 | 39.70829 | -75.08611 | 5794 ft | 266 kts | 6° |
| 2026-04-23 23:07 | 39.72628 | -75.08087 | 4991 ft | 269 kts | 20° |
| 2026-04-23 23:07 | 39.74132 | -75.06603 | 4381 ft | 270 kts | 44° |
| 2026-04-23 23:07 | 39.75358 | -75.04843 | 4391 ft | 264 kts | 44° |
| 2026-04-23 23:08 | 39.76581 | -75.03096 | 4389 ft | 261 kts | 44° |
| 2026-04-23 23:08 | 39.77816 | -75.01351 | 4385 ft | 261 kts | 44° |
| 2026-04-23 23:08 | 39.79041 | -74.99613 | 4247 ft | 259 kts | 44° |
| 2026-04-23 23:08 | 39.80265 | -74.97870 | 3971 ft | 257 kts | 44° |
| 2026-04-23 23:09 | 39.81450 | -74.96180 | 3976 ft | 258 kts | 44° |
| 2026-04-23 23:09 | 39.82825 | -74.94743 | 3921 ft | 251 kts | 22° |
| 2026-04-23 23:09 | 39.84507 | -74.94273 | 3956 ft | 248 kts | 357° |
| 2026-04-23 23:09 | 39.86153 | -74.94776 | 3976 ft | 243 kts | 336° |
| 2026-04-23 23:10 | 39.87707 | -74.95684 | 3993 ft | 245 kts | 334° |
| 2026-04-23 23:10 | 39.89245 | -74.96587 | 3988 ft | 242 kts | 334° |
| 2026-04-23 23:10 | 39.90604 | -74.97835 | 3930 ft | 232 kts | 311° |
| 2026-04-23 23:10 | 39.91410 | -74.99520 | 3872 ft | 216 kts | 297° |
| 2026-04-23 23:11 | 39.91970 | -75.01347 | 3486 ft | 217 kts | 287° |
| 2026-04-23 23:11 | 39.91976 | -75.03291 | 3060 ft | 216 kts | 261° |
| 2026-04-23 23:11 | 39.91585 | -75.05147 | 2895 ft | 211 kts | 257° |
| 2026-04-23 23:11 | 39.91121 | -75.06993 | 2683 ft | 216 kts | 252° |
| 2026-04-23 23:12 | 39.90636 | -75.08790 | 2366 ft | 195 kts | 254° |
| 2026-04-23 23:12 | 39.90274 | -75.10321 | 1994 ft | 163 kts | 258° |
| 2026-04-23 23:12 | 39.89993 | -75.11727 | 1620 ft | 158 kts | 259° |
| 2026-04-23 23:12 | 39.89745 | -75.13127 | 1306 ft | 166 kts | 261° |
| 2026-04-23 23:13 | 39.89493 | -75.14646 | 1131 ft | 166 kts | 260° |
| 2026-04-23 23:13 | 39.89220 | -75.16015 | 861 ft | 153 kts | 257° |
| 2026-04-23 23:13 | 39.88949 | -75.17379 | 633 ft | 152 kts | 258° |
| 2026-04-23 23:13 | 39.88686 | -75.18708 | 436 ft | 151 kts | 258° |
| 2026-04-23 23:14 | 39.88435 | -75.19978 | 257 ft | 139 kts | 259° |
| 2026-04-23 23:14 | 39.88200 | -75.21160 | 54 ft | 132 kts | 258° |
| 2026-04-23 23:14 | 39.87994 | -75.22209 | 11 ft | 95 kts | 253° |
| 2026-04-23 23:14 | 39.87948 | -75.22577 | 11 ft | 16 kts | 299° |
| 2026-04-23 23:15 | 39.87980 | -75.22675 | 13 ft | 9 kts | 290° |
| 2026-04-23 23:15 | 39.88016 | -75.22718 | 14 ft | 6 kts | 337° |
| 2026-04-23 23:15 | 39.88070 | -75.22720 | 15 ft | 9 kts | 33° |
| 2026-04-23 23:15 | 39.88100 | -75.22664 | 16 ft | 7 kts | 70° |
| 2026-04-23 23:16 | 39.88103 | -75.22654 | 16 ft | 0 kts | 73° |